createdAt,value
2019-06-07T00:00:41.762Z,8.30
2019-06-07T00:03:13.869Z,9.20
2019-06-07T00:05:38.350Z,8.50
2019-06-07T00:08:11.157Z,8.17
2019-06-07T00:10:37.168Z,8.50
2019-06-07T00:13:04.909Z,7.77
2019-06-07T00:15:32.152Z,8.70
2019-06-07T00:17:59.469Z,8.47
2019-06-07T00:20:26.788Z,8.20
2019-06-07T00:22:54.157Z,7.83
2019-06-07T00:25:24.404Z,7.90
2019-06-07T00:27:50.728Z,8.43
2019-06-07T00:30:39.448Z,7.40
2019-06-07T00:32:47.708Z,6.77
2019-06-07T00:35:17.625Z,7.43
2019-06-07T00:37:44.420Z,7.10
2019-06-07T00:40:18.621Z,6.73
2019-06-07T00:42:41.556Z,8.77
2019-06-07T00:45:10.879Z,7.13
2019-06-07T00:47:38.548Z,7.77
2019-06-07T00:50:07.914Z,8.37
2019-06-07T00:53:13.431Z,7.97
2019-06-07T00:55:04.796Z,6.33
2019-06-07T00:57:32.136Z,7.47
2019-06-07T00:59:59.376Z,7.20
2019-06-07T01:02:31.221Z,8.97
2019-06-07T01:04:55.809Z,7.37
2019-06-07T01:07:24.475Z,7.87
2019-06-07T01:09:52.057Z,7.77
2019-06-07T01:12:21.517Z,8.27
2019-06-07T01:14:50.596Z,6.93
2019-06-07T01:17:39.868Z,7.90
2019-06-07T01:19:53.964Z,8.40
2019-06-07T01:22:23.481Z,8.00
2019-06-07T01:24:51.740Z,8.53
2019-06-07T01:27:20.624Z,7.13
2019-06-07T01:29:48.101Z,7.03
2019-06-07T01:32:17.510Z,7.70
2019-06-07T01:34:44.980Z,8.57
2019-06-07T01:37:12.218Z,9.57
2019-06-07T01:39:39.454Z,9.33
2019-06-07T01:42:06.989Z,8.40
2019-06-07T01:44:34.257Z,9.03
2019-06-07T01:47:01.525Z,9.00
2019-06-07T01:49:29.782Z,8.70
2019-06-07T01:51:57.352Z,9.40
2019-06-07T01:54:52.116Z,8.43
2019-06-07T01:56:53.669Z,8.73
2019-06-07T01:59:21.933Z,9.03
2019-06-07T02:01:50.152Z,9.90
2019-06-07T02:04:21.621Z,9.23
2019-06-07T02:06:46.468Z,9.43
2019-06-07T02:09:13.645Z,9.37
2019-06-07T02:11:41.892Z,9.60
2019-06-07T02:14:09.142Z,10.27
2019-06-07T02:16:36.448Z,9.23
2019-06-07T02:19:04.031Z,11.00
2019-06-07T02:21:34.354Z,11.70
2019-06-07T02:24:00.468Z,12.10
2019-06-07T02:26:29.979Z,11.87
2019-06-07T02:28:56.792Z,10.97
2019-06-07T02:31:25.258Z,13.47
2019-06-07T02:33:53.141Z,13.37
2019-06-07T02:36:24.770Z,11.90
2019-06-07T02:38:49.425Z,12.87
2019-06-07T02:41:16.621Z,14.60
2019-06-07T02:43:43.906Z,14.00
2019-06-07T02:46:30.448Z,15.70
2019-06-07T02:48:52.465Z,15.07
2019-06-07T02:51:19.665Z,14.43
2019-06-07T02:53:47.288Z,16.37
2019-06-07T02:58:43.581Z,16.57
2019-06-07T03:01:10.803Z,17.00
2019-06-07T03:03:39.940Z,16.77
2019-06-07T03:06:07.931Z,17.07
2019-06-07T03:08:37.127Z,18.53
2019-06-07T03:11:06.280Z,17.00
2019-06-07T03:13:37.520Z,17.60
2019-06-07T03:16:06.880Z,18.87
2019-06-07T03:18:52.636Z,18.93
2019-06-07T03:21:21.789Z,19.37
2019-06-07T03:23:53.536Z,19.43
2019-06-07T03:26:22.357Z,18.30
2019-06-07T03:28:49.537Z,18.40
2019-06-07T03:31:16.738Z,19.70
2019-06-07T03:33:45.621Z,19.20
2019-06-07T03:36:23.835Z,20.90
2019-06-07T03:38:42.288Z,20.67
2019-06-07T03:41:09.497Z,21.00
2019-06-07T03:43:40.080Z,20.30
2019-06-07T03:46:05.779Z,19.70
2019-06-07T03:48:35.726Z,19.20
2019-06-07T03:51:04.997Z,21.17
2019-06-07T03:53:32.756Z,20.77
2019-06-07T03:56:00.321Z,19.10
2019-06-07T03:58:32.653Z,20.53
2019-06-07T04:00:58.735Z,20.53
2019-06-07T04:03:36.182Z,19.60
2019-06-07T04:05:54.780Z,20.80
2019-06-07T04:08:22.010Z,20.33
2019-06-07T04:10:59.804Z,21.50
2019-06-07T04:13:18.337Z,20.43
2019-06-07T04:15:45.708Z,20.93
2019-06-07T04:18:12.972Z,24.20
2019-06-07T04:20:41.440Z,21.50
2019-06-07T04:23:27.220Z,20.80
2019-06-07T04:25:42.231Z,21.60
2019-06-07T04:28:07.213Z,21.27
2019-06-07T04:30:41.966Z,24.90
2019-06-07T04:33:09.378Z,23.10
2019-06-07T04:35:40.040Z,24.97
2019-06-07T04:38:07.860Z,25.10
2019-06-07T04:40:36.852Z,24.57
2019-06-07T04:43:05.355Z,21.47
2019-06-07T04:45:40.563Z,23.57
2019-06-07T04:48:04.444Z,23.50
2019-06-07T04:50:35.390Z,23.13
2019-06-07T04:53:01.706Z,22.67
2019-06-07T04:55:29.147Z,24.20
2019-06-07T04:57:56.685Z,22.70
2019-06-07T05:00:52.102Z,24.00
2019-06-07T05:03:00.581Z,23.97
2019-06-07T05:05:27.789Z,23.40
2019-06-07T05:07:55.177Z,24.13
2019-06-07T05:10:23.092Z,24.00
2019-06-07T05:12:50.285Z,23.30
2019-06-07T05:15:17.606Z,24.97
2019-06-07T05:17:45.178Z,23.57
2019-06-07T05:20:12.658Z,25.77
2019-06-07T05:22:44.724Z,25.03
2019-06-07T05:25:09.384Z,25.00
2019-06-07T05:27:41.086Z,23.30
2019-06-07T05:30:13.722Z,21.80
2019-06-07T05:32:37.561Z,21.93
2019-06-07T05:35:04.975Z,20.07
2019-06-07T05:37:33.781Z,22.30
2019-06-07T05:40:01.284Z,22.87
2019-06-07T05:42:28.486Z,19.57
2019-06-07T05:44:55.681Z,20.80
2019-06-07T05:47:22.864Z,20.87
2019-06-07T05:49:50.302Z,19.10
2019-06-07T05:52:18.313Z,20.07
2019-06-07T05:54:47.142Z,20.07
2019-06-07T05:57:14.549Z,18.60
2019-06-07T05:59:44.855Z,17.70
2019-06-07T06:02:22.103Z,19.17
2019-06-07T06:04:45.188Z,17.40
2019-06-07T06:07:09.167Z,18.00
2019-06-07T06:09:36.540Z,16.43
2019-06-07T06:12:04.360Z,16.20
2019-06-07T06:14:31.716Z,14.10
2019-06-07T06:16:58.928Z,13.10
2019-06-07T06:19:26.222Z,13.97
2019-06-07T06:21:53.569Z,13.70
2019-06-07T06:24:20.765Z,16.47
2019-06-07T06:26:52.079Z,17.07
2019-06-07T06:29:17.106Z,17.27
2019-06-07T06:32:35.897Z,17.53
2019-06-07T06:34:13.561Z,17.23
2019-06-07T06:36:44.644Z,16.80
2019-06-07T06:39:09.856Z,16.70
2019-06-07T06:41:52.267Z,17.57
2019-06-07T06:44:06.288Z,16.63
2019-06-07T06:46:39.013Z,15.20
2019-06-07T06:49:02.613Z,16.80
2019-06-07T06:51:29.825Z,16.90
2019-06-07T06:53:57.008Z,16.33
2019-06-07T06:56:24.204Z,14.97
2019-06-07T07:01:20.861Z,16.83
2019-06-07T07:04:05.309Z,15.90
2019-06-07T07:06:26.306Z,16.10
2019-06-07T07:08:51.384Z,14.90
2019-06-07T07:11:23.136Z,16.37
2019-06-07T07:13:49.904Z,17.47
2019-06-07T07:16:17.501Z,15.67
2019-06-07T07:18:46.878Z,17.27
2019-06-07T07:21:13.828Z,18.50
2019-06-07T07:24:04.336Z,17.27
2019-06-07T07:26:10.144Z,15.43
2019-06-07T07:28:37.337Z,15.43
2019-06-07T07:31:04.535Z,14.80
2019-06-07T07:34:20.883Z,17.33
2019-06-07T07:36:18.894Z,18.57
2019-06-07T07:38:29.992Z,17.70
2019-06-07T07:41:08.964Z,17.20
2019-06-07T07:43:26.285Z,16.07
2019-06-07T07:45:59.239Z,15.83
2019-06-07T07:48:22.619Z,16.33
2019-06-07T07:50:54.470Z,17.20
2019-06-07T07:53:18.944Z,16.43
2019-06-07T07:55:51.536Z,16.87
2019-06-07T07:58:15.260Z,15.93
2019-06-07T08:00:53.931Z,16.40
2019-06-07T08:03:11.611Z,15.60
2019-06-07T08:05:43.017Z,15.00
2019-06-07T08:08:08.098Z,15.80
2019-06-07T08:10:35.429Z,14.77
2019-06-07T08:13:23.575Z,16.10
2019-06-07T08:15:31.774Z,15.20
2019-06-07T08:18:03.863Z,16.10
2019-06-07T08:20:28.225Z,15.80
2019-06-07T08:22:59.116Z,14.80
2019-06-07T08:25:24.634Z,15.80
2019-06-07T08:27:52.482Z,14.43
2019-06-07T08:30:47.933Z,13.83
2019-06-07T08:32:55.888Z,21.37
2019-06-07T08:36:03.096Z,15.37
2019-06-07T08:40:20.759Z,13.87
2019-06-07T08:43:10.852Z,14.17
2019-06-07T08:45:19.280Z,13.53
2019-06-07T08:47:46.463Z,13.80
2019-06-07T08:50:14.364Z,15.23
2019-06-07T08:52:41.536Z,14.00
2019-06-07T08:55:09.024Z,13.10
2019-06-07T08:57:36.213Z,13.00
2019-06-07T09:00:29.330Z,13.80
2019-06-07T09:02:34.042Z,14.10
2019-06-07T09:05:10.781Z,12.80
2019-06-07T09:07:30.324Z,12.60
2019-06-07T09:10:03.147Z,12.20
2019-06-07T09:12:26.600Z,11.23
2019-06-07T09:15:06.751Z,12.37
2019-06-07T09:17:23.869Z,11.87
2019-06-07T09:19:51.060Z,12.20
2019-06-07T09:22:18.262Z,12.17
2019-06-07T09:24:45.437Z,12.67
2019-06-07T09:27:13.284Z,12.10
2019-06-07T09:29:42.116Z,11.97
2019-06-07T09:32:12.137Z,11.87
2019-06-07T09:34:38.558Z,12.27
2019-06-07T09:37:54.455Z,13.07
2019-06-07T09:39:35.032Z,13.33
2019-06-07T09:42:08.462Z,13.23
2019-06-07T09:44:31.337Z,12.03
2019-06-07T09:47:19.946Z,11.87
2019-06-07T09:49:32.921Z,13.63
2019-06-07T09:51:57.841Z,14.87
2019-06-07T09:55:03.734Z,14.43
2019-06-07T09:56:55.545Z,14.53
2019-06-07T09:59:23.008Z,14.73
2019-06-07T10:01:50.213Z,16.20
2019-06-07T10:04:30.642Z,15.90
2019-06-07T10:06:46.623Z,16.03
2019-06-07T10:11:43.014Z,18.70
2019-06-07T10:14:10.212Z,16.77
2019-06-07T10:16:46.599Z,18.53
2019-06-07T10:19:07.556Z,15.97
2019-06-07T10:21:34.916Z,15.63
2019-06-07T10:24:03.391Z,16.53
2019-06-07T10:26:30.925Z,14.83
2019-06-07T10:28:58.106Z,16.70
2019-06-07T10:31:25.306Z,17.07
2019-06-07T10:33:52.516Z,16.00
2019-06-07T10:36:19.740Z,16.73
2019-06-07T10:38:46.998Z,17.80
2019-06-07T10:41:14.192Z,19.00
2019-06-07T10:43:41.372Z,17.30
2019-06-07T10:46:09.925Z,18.57
2019-06-07T10:48:38.568Z,18.30
2019-06-07T10:51:06.175Z,19.90
2019-06-07T10:53:33.585Z,18.57
2019-06-07T10:56:00.816Z,18.33
2019-06-07T10:58:27.996Z,16.10
2019-06-07T11:00:55.196Z,17.60
2019-06-07T11:03:22.386Z,19.30
2019-06-07T11:05:49.576Z,16.80
2019-06-07T11:08:16.785Z,15.60
2019-06-07T11:10:44.177Z,14.00
2019-06-07T11:13:12.465Z,14.00
2019-06-07T11:15:39.886Z,14.17
2019-06-07T11:18:08.411Z,14.60
2019-06-07T11:20:35.796Z,15.70
2019-06-07T11:23:03.101Z,12.53
2019-06-07T11:25:30.303Z,15.03
2019-06-07T11:27:57.491Z,13.77
2019-06-07T11:30:24.749Z,12.70
2019-06-07T11:32:52.020Z,11.90
2019-06-07T11:35:19.230Z,13.90
2019-06-07T11:37:46.524Z,12.70
2019-06-07T11:40:32.103Z,12.37
2019-06-07T11:42:43.006Z,13.60
2019-06-07T11:45:10.861Z,14.03
2019-06-07T11:47:39.396Z,12.60
2019-06-07T11:50:07.289Z,12.20
2019-06-07T11:52:34.608Z,12.63
2019-06-07T11:55:01.846Z,12.87
2019-06-07T11:57:29.105Z,11.63
2019-06-07T11:59:56.312Z,13.20
2019-06-07T12:02:23.505Z,12.17
2019-06-07T12:04:50.730Z,11.53
2019-06-07T12:07:19.966Z,10.80
2019-06-07T12:09:56.047Z,10.53
2019-06-07T12:12:16.615Z,9.23
2019-06-07T12:14:43.927Z,8.73
2019-06-07T12:17:11.329Z,9.07
2019-06-07T12:19:38.617Z,8.80
2019-06-07T12:22:06.296Z,8.67
2019-06-07T12:24:33.496Z,9.40
2019-06-07T12:27:00.688Z,9.10
2019-06-07T12:29:27.873Z,8.10
2019-06-07T12:31:55.068Z,8.30
2019-06-07T12:34:22.255Z,6.90
2019-06-07T12:36:49.457Z,8.00
2019-06-07T12:39:16.688Z,8.30
2019-06-07T12:41:43.913Z,8.00
2019-06-07T12:44:12.495Z,7.00
2019-06-07T12:46:39.944Z,7.30
2019-06-07T12:49:07.126Z,7.23
2019-06-07T12:51:34.316Z,6.57
2019-06-07T12:54:01.565Z,5.97
2019-06-07T12:56:28.848Z,6.27
2019-06-07T12:58:56.063Z,6.53
2019-06-07T13:01:24.725Z,6.83
2019-06-07T13:03:52.262Z,8.53
2019-06-07T13:06:19.555Z,6.40
2019-06-07T13:08:46.856Z,6.50
2019-06-07T13:11:21.223Z,7.80
2019-06-07T13:13:43.182Z,7.67
2019-06-07T13:16:10.447Z,8.33
2019-06-07T13:18:37.683Z,7.40
2019-06-07T13:21:04.880Z,7.20
2019-06-07T13:23:32.093Z,6.80
2019-06-07T13:25:59.292Z,6.73
2019-06-07T13:28:26.524Z,6.53
2019-06-07T13:30:53.719Z,6.97
2019-06-07T13:33:21.800Z,7.50
2019-06-07T13:35:49.584Z,6.10
2019-06-07T13:38:25.069Z,6.57
2019-06-07T13:40:53.344Z,7.00
2019-06-07T13:43:21.437Z,6.67
2019-06-07T13:45:48.857Z,7.50
2019-06-07T13:48:17.118Z,7.13
2019-06-07T13:50:44.434Z,6.33
2019-06-07T13:53:11.636Z,5.97
2019-06-07T13:55:38.853Z,6.50
2019-06-07T13:58:06.384Z,7.13
2019-06-07T14:00:33.591Z,5.80
2019-06-07T14:03:00.777Z,5.33
2019-06-07T14:05:29.120Z,5.30
2019-06-07T14:07:56.593Z,6.10
2019-06-07T14:10:23.869Z,5.70
2019-06-07T14:12:51.075Z,5.50
2019-06-07T14:15:18.326Z,6.77
2019-06-07T14:17:45.767Z,5.77
2019-06-07T14:20:13.152Z,5.93
2019-06-07T14:22:40.460Z,5.67
2019-06-07T14:25:08.178Z,5.60
2019-06-07T14:27:35.372Z,6.00
2019-06-07T14:30:03.789Z,5.93
2019-06-07T14:32:31.058Z,5.73
2019-06-07T14:34:58.294Z,6.20
2019-06-07T14:37:26.750Z,6.10
2019-06-07T14:39:54.078Z,6.67
2019-06-07T14:42:21.292Z,7.20
2019-06-07T14:44:49.009Z,6.10
2019-06-07T14:47:16.194Z,6.10
2019-06-07T14:49:43.420Z,6.23
2019-06-07T14:52:10.625Z,6.87
2019-06-07T14:54:39.156Z,7.40
2019-06-07T14:57:06.951Z,6.27
2019-06-07T14:59:34.877Z,6.20
2019-06-07T15:02:02.449Z,7.00
2019-06-07T15:04:30.699Z,6.17
2019-06-07T15:06:58.136Z,5.63
2019-06-07T15:09:26.732Z,6.90
2019-06-07T15:11:54.260Z,6.50
2019-06-07T15:14:21.561Z,6.37
2019-06-07T15:16:48.758Z,5.83
2019-06-07T15:19:16.034Z,7.40
2019-06-07T15:21:43.218Z,6.17
2019-06-07T15:24:10.400Z,7.40
2019-06-07T15:26:38.659Z,6.53
2019-06-07T15:29:06.128Z,6.77
2019-06-07T15:31:34.575Z,6.30
2019-06-07T15:34:02.556Z,6.70
2019-06-07T15:36:30.226Z,6.70
2019-06-07T15:38:57.523Z,6.70
2019-06-07T15:41:24.627Z,6.93
2019-06-07T15:43:51.936Z,6.40
2019-06-07T15:46:19.141Z,6.67
2019-06-07T15:48:46.362Z,6.70
2019-06-07T15:51:13.674Z,6.30
2019-06-07T15:53:44.412Z,7.90
2019-06-07T15:56:09.966Z,7.70
2019-06-07T15:58:37.283Z,6.53
2019-06-07T16:01:04.565Z,7.93
2019-06-07T16:03:31.773Z,7.57
2019-06-07T16:05:58.982Z,7.87
2019-06-07T16:08:26.203Z,7.77
2019-06-07T16:10:53.413Z,8.07
2019-06-07T16:13:20.593Z,9.53
2019-06-07T16:15:47.805Z,9.80
2019-06-07T16:18:15.020Z,7.60
2019-06-07T16:20:43.633Z,7.27
2019-06-07T16:23:11.021Z,20.07
2019-06-07T16:25:38.213Z,29.57
2019-06-07T16:28:05.409Z,26.33
2019-06-07T16:30:32.631Z,16.77
2019-06-07T16:32:59.828Z,22.57
2019-06-07T16:35:27.021Z,26.93
2019-06-07T16:37:54.196Z,16.30
2019-06-07T16:40:21.496Z,9.87
2019-06-07T16:42:49.205Z,13.27
2019-06-07T16:45:16.866Z,14.53
2019-06-07T16:47:47.173Z,10.97
2019-06-07T16:50:13.667Z,10.47
2019-06-07T16:52:41.898Z,13.33
2019-06-07T16:55:10.500Z,14.17
2019-06-07T16:57:38.686Z,10.77
2019-06-07T17:00:06.849Z,12.10
2019-06-07T17:02:34.066Z,12.97
2019-06-07T17:05:01.282Z,10.50
2019-06-07T17:07:28.564Z,10.93
2019-06-07T17:09:55.764Z,11.43
2019-06-07T17:12:22.960Z,11.90
2019-06-07T17:14:50.156Z,12.10
2019-06-07T17:17:17.379Z,11.00
2019-06-07T17:19:45.001Z,11.67
2019-06-07T17:22:12.393Z,11.10
2019-06-07T17:24:41.343Z,11.27
2019-06-07T17:27:08.741Z,11.63
2019-06-07T17:29:35.920Z,11.90
2019-06-07T17:32:03.229Z,12.47
2019-06-07T17:34:30.433Z,13.30
2019-06-07T17:36:57.716Z,13.90
2019-06-07T17:39:24.814Z,13.63
2019-06-07T17:42:01.869Z,14.40
2019-06-07T17:44:21.109Z,13.60
2019-06-07T17:46:49.921Z,14.07
2019-06-07T17:49:17.394Z,14.53
2019-06-07T17:51:45.767Z,13.40
2019-06-07T17:54:13.173Z,14.70
2019-06-07T17:56:40.370Z,13.00
2019-06-07T17:59:07.576Z,13.70
2019-06-07T18:01:41.403Z,13.77
2019-06-07T18:04:04.084Z,13.40
2019-06-07T18:06:33.368Z,13.80
2019-06-07T18:09:01.789Z,13.70
2019-06-07T18:11:28.984Z,14.33
2019-06-07T18:14:08.468Z,13.33
2019-06-07T18:16:25.404Z,14.53
2019-06-07T18:18:52.807Z,14.17
2019-06-07T18:21:20.084Z,14.47
2019-06-07T18:23:48.275Z,13.73
2019-06-07T18:26:15.576Z,15.33
2019-06-07T18:28:42.774Z,15.33
2019-06-07T18:31:09.970Z,15.50
2019-06-07T18:33:37.185Z,16.37
2019-06-07T18:36:04.414Z,16.50
2019-06-07T18:38:31.600Z,16.73
2019-06-07T18:40:59.622Z,17.53
2019-06-07T18:43:26.990Z,16.17
2019-06-07T18:45:55.852Z,15.90
2019-06-07T18:48:23.212Z,16.30
2019-06-07T18:50:50.720Z,16.33
2019-06-07T18:53:18.043Z,15.70
2019-06-07T18:55:45.241Z,14.33
2019-06-07T18:58:12.424Z,14.63
2019-06-07T19:00:39.639Z,16.60
2019-06-07T19:03:06.967Z,15.80
2019-06-07T19:05:34.275Z,16.03
2019-06-07T19:08:01.681Z,16.40
2019-06-07T19:10:28.879Z,15.60
2019-06-07T19:12:57.304Z,16.60
2019-06-07T19:15:26.456Z,16.90
2019-06-07T19:17:54.121Z,16.23
2019-06-07T19:20:22.092Z,16.50
2019-06-07T19:22:50.101Z,16.97
2019-06-07T19:25:18.190Z,17.23
2019-06-07T19:27:45.360Z,16.03
2019-06-07T19:30:13.265Z,17.20
2019-06-07T19:32:40.460Z,16.80
2019-06-07T19:35:07.848Z,16.60
2019-06-07T19:37:35.221Z,16.43
2019-06-07T19:40:03.224Z,18.13
2019-06-07T19:42:30.424Z,15.67
2019-06-07T19:45:16.677Z,18.10
2019-06-07T19:47:27.434Z,16.23
2019-06-07T19:49:54.976Z,17.30
2019-06-07T19:52:22.249Z,18.77
2019-06-07T19:54:49.495Z,18.33
2019-06-07T19:57:16.668Z,15.83
2019-06-07T19:59:43.870Z,17.23
2019-06-07T20:02:11.081Z,16.23
2019-06-07T20:04:38.372Z,16.30
2019-06-07T20:07:05.834Z,15.63
2019-06-07T20:09:33.174Z,16.90
2019-06-07T20:12:00.750Z,16.73
2019-06-07T20:14:28.157Z,16.47
2019-06-07T20:16:55.349Z,17.13
2019-06-07T20:19:22.540Z,15.10
2019-06-07T20:21:49.761Z,15.90
2019-06-07T20:24:26.810Z,16.50
2019-06-07T20:26:46.064Z,16.47
2019-06-07T20:29:25.457Z,16.90
2019-06-07T20:31:42.573Z,17.47
2019-06-07T20:34:09.776Z,16.27
2019-06-07T20:36:36.984Z,16.90
2019-06-07T20:39:06.196Z,16.80
2019-06-07T20:41:33.552Z,18.07
2019-06-07T20:44:01.728Z,17.73
2019-06-07T20:46:29.137Z,17.60
2019-06-07T20:48:56.432Z,17.97
2019-06-07T20:51:23.743Z,20.17
2019-06-07T20:53:50.936Z,19.80
2019-06-07T20:56:18.218Z,20.93
2019-06-07T20:58:45.416Z,18.43
2019-06-07T21:01:12.609Z,19.17
2019-06-07T21:03:39.819Z,17.47
2019-06-07T21:06:07.521Z,18.70
2019-06-07T21:08:34.828Z,18.10
2019-06-07T21:11:02.016Z,19.03
2019-06-07T21:13:29.244Z,18.60
2019-06-07T21:15:56.524Z,17.87
2019-06-07T21:18:23.732Z,17.87
2019-06-07T21:20:50.924Z,17.90
2019-06-07T21:23:18.143Z,17.23
2019-06-07T21:25:45.325Z,18.50
2019-06-07T21:28:12.521Z,19.17
2019-06-07T21:30:39.708Z,19.20
2019-06-07T21:33:07.641Z,18.80
2019-06-07T21:35:34.996Z,17.20
2019-06-07T21:38:03.846Z,18.33
2019-06-07T21:40:31.288Z,18.13
2019-06-07T21:42:58.477Z,18.90
2019-06-07T21:45:25.697Z,18.33
2019-06-07T21:47:52.881Z,19.53
2019-06-07T21:50:20.064Z,20.83
2019-06-07T21:52:47.293Z,18.90
2019-06-07T21:55:14.625Z,17.50
2019-06-07T21:57:41.833Z,18.07
2019-06-07T22:00:14.508Z,19.17
2019-06-07T22:02:41.693Z,21.83
2019-06-07T22:05:09.634Z,18.63
2019-06-07T22:07:36.976Z,19.30
2019-06-07T22:10:05.926Z,20.47
2019-06-07T22:12:33.193Z,18.77
2019-06-07T22:15:00.396Z,20.83
2019-06-07T22:17:27.573Z,21.77
2019-06-07T22:19:54.765Z,19.43
2019-06-07T22:22:21.985Z,19.33
2019-06-07T22:24:49.189Z,19.17
2019-06-07T22:27:17.605Z,18.40
2019-06-07T22:29:44.994Z,19.83
2019-06-07T22:32:12.966Z,20.47
2019-06-07T22:34:40.373Z,20.60
2019-06-07T22:37:07.576Z,18.60
2019-06-07T22:39:34.789Z,19.53
2019-06-07T22:42:01.986Z,21.73
2019-06-07T22:44:29.189Z,17.93
2019-06-07T22:46:56.368Z,18.07
2019-06-07T22:49:23.569Z,18.57
2019-06-07T22:51:50.760Z,18.40
2019-06-07T22:54:18.146Z,19.97
2019-06-07T22:56:59.054Z,19.43
2019-06-07T22:59:26.256Z,18.83
2019-06-07T23:01:53.468Z,19.73
2019-06-07T23:04:20.666Z,18.70
2019-06-07T23:06:47.860Z,20.20
2019-06-07T23:09:15.077Z,20.80
2019-06-07T23:11:42.268Z,20.20
2019-06-07T23:14:09.464Z,19.33
2019-06-07T23:16:53.999Z,18.57
2019-06-07T23:19:05.813Z,16.53
2019-06-07T23:21:33.076Z,20.10
2019-06-07T23:24:00.264Z,19.00
2019-06-07T23:26:27.464Z,19.70
2019-06-07T23:28:54.770Z,19.57
2019-06-07T23:31:22.039Z,20.17
2019-06-07T23:33:49.228Z,19.13
2019-06-07T23:36:17.211Z,19.53
2019-06-07T23:38:44.596Z,19.60
2019-06-07T23:41:13.163Z,19.93
2019-06-07T23:43:40.576Z,19.93
2019-06-07T23:46:08.057Z,20.30
2019-06-07T23:48:35.245Z,17.90
2019-06-07T23:51:02.428Z,19.03
2019-06-07T23:53:29.628Z,19.50
2019-06-07T23:55:56.853Z,19.17
2019-06-07T23:58:24.044Z,18.60
